sensor_id;sensor_type;location;lat;lon;timestamp;P1;durP1;ratioP1;P2;durP2;ratioP2
31224;SDS011;17847;31.524;74.366;2022-09-17T12:10:43;24.05;;;15.68;;
31224;SDS011;17847;31.524;74.366;2022-09-17T12:13:59;25.77;;;16.42;;
31224;SDS011;17847;31.524;74.366;2022-09-17T12:17:03;26.90;;;16.83;;
31224;SDS011;17847;31.524;74.366;2022-09-17T12:19:56;25.27;;;16.70;;
31224;SDS011;17847;31.524;74.366;2022-09-17T12:22:44;28.25;;;16.20;;
31224;SDS011;17847;31.524;74.366;2022-09-17T12:25:45;26.00;;;17.88;;
31224;SDS011;17847;31.524;74.366;2022-09-17T12:28:56;29.67;;;17.05;;
31224;SDS011;17847;31.524;74.366;2022-09-17T12:41:32;27.25;;;17.90;;
31224;SDS011;17847;31.524;74.366;2022-09-17T13:00:16;27.90;;;19.73;;
31224;SDS011;17847;31.524;74.366;2022-09-17T13:03:29;38.17;;;21.13;;
31224;SDS011;17847;31.524;74.366;2022-09-17T13:16:49;32.70;;;21.65;;
31224;SDS011;17847;31.524;74.366;2022-09-17T13:25:50;27.85;;;20.88;;
31224;SDS011;17847;31.524;74.366;2022-09-17T13:28:48;28.73;;;21.15;;
31224;SDS011;17847;31.524;74.366;2022-09-17T13:34:26;36.00;;;22.77;;
31224;SDS011;17847;31.524;74.366;2022-09-17T13:37:21;42.25;;;22.42;;
31224;SDS011;17847;31.524;74.366;2022-09-17T13:43:19;38.17;;;23.25;;
31224;SDS011;17847;31.524;74.366;2022-09-17T13:46:08;35.78;;;22.70;;
31224;SDS011;17847;31.524;74.366;2022-09-17T13:49:00;45.08;;;24.63;;
31224;SDS011;17847;31.524;74.366;2022-09-17T13:51:54;38.67;;;23.50;;
31224;SDS011;17847;31.524;74.366;2022-09-17T13:57:44;37.13;;;23.63;;
31224;SDS011;17847;31.524;74.366;2022-09-17T14:00:47;38.38;;;23.33;;
31224;SDS011;17847;31.524;74.366;2022-09-17T14:09:32;41.17;;;23.95;;
31224;SDS011;17847;31.524;74.366;2022-09-17T14:12:51;39.33;;;23.33;;
31224;SDS011;17847;31.524;74.366;2022-09-17T14:15:54;39.25;;;23.70;;
31224;SDS011;17847;31.524;74.366;2022-09-17T14:18:41;37.58;;;23.98;;
31224;SDS011;17847;31.524;74.366;2022-09-17T14:21:32;46.00;;;25.85;;
31224;SDS011;17847;31.524;74.366;2022-09-17T14:24:23;38.28;;;24.13;;
31224;SDS011;17847;31.524;74.366;2022-09-17T14:27:51;38.30;;;23.73;;
31224;SDS011;17847;31.524;74.366;2022-09-17T14:30:45;42.42;;;23.20;;
31224;SDS011;17847;31.524;74.366;2022-09-17T14:33:33;43.28;;;23.83;;
31224;SDS011;17847;31.524;74.366;2022-09-17T14:36:17;35.90;;;22.10;;
31224;SDS011;17847;31.524;74.366;2022-09-17T14:39:14;34.95;;;21.75;;
31224;SDS011;17847;31.524;74.366;2022-09-17T14:42:03;38.30;;;22.75;;
31224;SDS011;17847;31.524;74.366;2022-09-17T14:45:23;35.28;;;22.30;;
31224;SDS011;17847;31.524;74.366;2022-09-17T14:48:18;31.08;;;23.23;;
31224;SDS011;17847;31.524;74.366;2022-09-17T14:51:40;30.80;;;22.90;;
31224;SDS011;17847;31.524;74.366;2022-09-17T14:54:24;29.27;;;22.25;;
31224;SDS011;17847;31.524;74.366;2022-09-17T14:57:28;34.40;;;23.38;;
31224;SDS011;17847;31.524;74.366;2022-09-17T15:00:16;31.23;;;23.25;;
31224;SDS011;17847;31.524;74.366;2022-09-17T15:03:19;36.10;;;21.98;;
31224;SDS011;17847;31.524;74.366;2022-09-17T15:06:03;35.25;;;21.58;;
31224;SDS011;17847;31.524;74.366;2022-09-17T15:08:56;32.47;;;23.10;;
31224;SDS011;17847;31.524;74.366;2022-09-17T15:11:46;36.30;;;22.50;;
31224;SDS011;17847;31.524;74.366;2022-09-17T15:14:44;34.35;;;22.90;;
31224;SDS011;17847;31.524;74.366;2022-09-17T15:17:33;41.88;;;23.25;;
31224;SDS011;17847;31.524;74.366;2022-09-17T15:20:28;32.90;;;22.30;;
31224;SDS011;17847;31.524;74.366;2022-09-17T15:23:20;36.03;;;23.42;;
31224;SDS011;17847;31.524;74.366;2022-09-17T15:26:23;42.00;;;25.25;;
31224;SDS011;17847;31.524;74.366;2022-09-17T15:29:10;39.30;;;25.40;;
31224;SDS011;17847;31.524;74.366;2022-09-17T15:32:15;40.53;;;25.25;;
31224;SDS011;17847;31.524;74.366;2022-09-17T15:35:15;33.70;;;25.98;;
31224;SDS011;17847;31.524;74.366;2022-09-17T15:38:20;42.05;;;25.38;;
31224;SDS011;17847;31.524;74.366;2022-09-17T15:41:27;39.03;;;25.50;;
31224;SDS011;17847;31.524;74.366;2022-09-17T15:44:25;43.42;;;26.35;;
31224;SDS011;17847;31.524;74.366;2022-09-17T15:50:58;45.42;;;28.52;;
31224;SDS011;17847;31.524;74.366;2022-09-17T15:53:50;41.72;;;27.25;;
31224;SDS011;17847;31.524;74.366;2022-09-17T15:56:57;41.05;;;28.33;;
31224;SDS011;17847;31.524;74.366;2022-09-17T15:59:36;43.13;;;28.63;;
31224;SDS011;17847;31.524;74.366;2022-09-17T16:02:32;54.03;;;30.50;;
31224;SDS011;17847;31.524;74.366;2022-09-17T16:08:17;44.25;;;28.88;;
31224;SDS011;17847;31.524;74.366;2022-09-17T16:11:04;45.13;;;29.73;;
31224;SDS011;17847;31.524;74.366;2022-09-17T16:13:54;42.60;;;28.27;;
31224;SDS011;17847;31.524;74.366;2022-09-17T16:16:51;43.72;;;28.20;;
31224;SDS011;17847;31.524;74.366;2022-09-17T16:19:46;42.28;;;29.58;;
31224;SDS011;17847;31.524;74.366;2022-09-17T16:22:30;43.58;;;28.55;;
31224;SDS011;17847;31.524;74.366;2022-09-17T16:28:18;41.97;;;27.40;;
31224;SDS011;17847;31.524;74.366;2022-09-17T16:31:13;45.15;;;28.42;;
31224;SDS011;17847;31.524;74.366;2022-09-17T16:36:45;37.10;;;25.27;;
31224;SDS011;17847;31.524;74.366;2022-09-17T16:39:28;34.03;;;25.02;;
31224;SDS011;17847;31.524;74.366;2022-09-17T16:42:19;40.85;;;24.40;;
31224;SDS011;17847;31.524;74.366;2022-09-17T16:44:57;37.42;;;24.45;;
31224;SDS011;17847;31.524;74.366;2022-09-17T16:47:57;33.58;;;23.08;;
31224;SDS011;17847;31.524;74.366;2022-09-17T16:50:38;34.63;;;24.02;;
31224;SDS011;17847;31.524;74.366;2022-09-17T16:53:35;37.75;;;23.67;;
31224;SDS011;17847;31.524;74.366;2022-09-17T16:56:21;29.35;;;22.95;;
31224;SDS011;17847;31.524;74.366;2022-09-17T16:59:11;36.42;;;23.90;;
31224;SDS011;17847;31.524;74.366;2022-09-17T17:01:55;42.08;;;23.75;;
31224;SDS011;17847;31.524;74.366;2022-09-17T17:04:45;34.03;;;23.20;;
31224;SDS011;17847;31.524;74.366;2022-09-17T17:07:34;34.20;;;23.70;;
31224;SDS011;17847;31.524;74.366;2022-09-17T17:10:32;32.55;;;23.48;;
31224;SDS011;17847;31.524;74.366;2022-09-17T17:13:15;31.02;;;22.88;;
31224;SDS011;17847;31.524;74.366;2022-09-17T17:16:05;42.38;;;24.23;;
31224;SDS011;17847;31.524;74.366;2022-09-17T17:19:05;28.77;;;23.27;;
31224;SDS011;17847;31.524;74.366;2022-09-17T17:22:02;33.40;;;23.70;;
31224;SDS011;17847;31.524;74.366;2022-09-17T17:24:47;32.95;;;23.20;;
31224;SDS011;17847;31.524;74.366;2022-09-17T17:27:36;29.15;;;23.40;;
31224;SDS011;17847;31.524;74.366;2022-09-17T17:30:20;35.22;;;23.98;;
31224;SDS011;17847;31.524;74.366;2022-09-17T17:33:18;31.08;;;22.52;;
31224;SDS011;17847;31.524;74.366;2022-09-17T17:36:05;31.50;;;23.63;;
31224;SDS011;17847;31.524;74.366;2022-09-17T17:38:55;35.25;;;23.30;;
31224;SDS011;17847;31.524;74.366;2022-09-17T17:41:39;34.25;;;24.27;;
31224;SDS011;17847;31.524;74.366;2022-09-17T17:44:31;30.10;;;22.50;;
31224;SDS011;17847;31.524;74.366;2022-09-17T17:47:14;33.42;;;23.33;;
31224;SDS011;17847;31.524;74.366;2022-09-17T17:50:06;34.42;;;23.55;;
31224;SDS011;17847;31.524;74.366;2022-09-17T17:52:53;38.97;;;24.80;;
31224;SDS011;17847;31.524;74.366;2022-09-17T17:55:41;33.00;;;22.65;;
31224;SDS011;17847;31.524;74.366;2022-09-17T17:58:24;34.88;;;23.02;;
31224;SDS011;17847;31.524;74.366;2022-09-17T18:01:17;35.58;;;24.25;;
31224;SDS011;17847;31.524;74.366;2022-09-17T18:04:01;37.03;;;23.58;;
31224;SDS011;17847;31.524;74.366;2022-09-17T18:06:58;39.63;;;23.77;;
31224;SDS011;17847;31.524;74.366;2022-09-17T18:09:41;37.50;;;23.48;;
31224;SDS011;17847;31.524;74.366;2022-09-17T18:12:36;30.10;;;22.45;;
31224;SDS011;17847;31.524;74.366;2022-09-17T18:15:12;37.13;;;23.65;;
31224;SDS011;17847;31.524;74.366;2022-09-17T18:18:16;30.48;;;22.85;;
31224;SDS011;17847;31.524;74.366;2022-09-17T18:21:03;33.42;;;23.60;;
31224;SDS011;17847;31.524;74.366;2022-09-17T18:23:54;32.85;;;22.88;;
31224;SDS011;17847;31.524;74.366;2022-09-17T18:26:37;35.45;;;22.98;;
31224;SDS011;17847;31.524;74.366;2022-09-17T18:29:32;35.88;;;23.17;;
31224;SDS011;17847;31.524;74.366;2022-09-17T18:32:08;33.88;;;24.10;;
31224;SDS011;17847;31.524;74.366;2022-09-17T18:36:08;36.25;;;23.02;;
31224;SDS011;17847;31.524;74.366;2022-09-17T18:39:16;38.65;;;24.38;;
31224;SDS011;17847;31.524;74.366;2022-09-17T18:42:15;33.05;;;24.15;;
31224;SDS011;17847;31.524;74.366;2022-09-17T18:45:11;34.72;;;23.70;;
31224;SDS011;17847;31.524;74.366;2022-09-17T18:47:48;37.30;;;23.65;;
31224;SDS011;17847;31.524;74.366;2022-09-17T18:50:59;36.58;;;23.02;;
31224;SDS011;17847;31.524;74.366;2022-09-17T18:53:48;31.98;;;24.05;;
31224;SDS011;17847;31.524;74.366;2022-09-17T18:56:43;33.85;;;23.35;;
31224;SDS011;17847;31.524;74.366;2022-09-17T18:59:25;40.45;;;24.27;;
31224;SDS011;17847;31.524;74.366;2022-09-17T19:02:14;36.40;;;24.67;;
31224;SDS011;17847;31.524;74.366;2022-09-17T19:04:53;38.15;;;24.75;;
31224;SDS011;17847;31.524;74.366;2022-09-17T19:07:48;31.38;;;24.58;;
31224;SDS011;17847;31.524;74.366;2022-09-17T19:10:48;33.65;;;24.63;;
31224;SDS011;17847;31.524;74.366;2022-09-17T19:13:26;37.70;;;25.75;;
31224;SDS011;17847;31.524;74.366;2022-09-17T19:16:26;38.42;;;25.98;;
31224;SDS011;17847;31.524;74.366;2022-09-17T19:19:02;36.38;;;26.35;;
31224;SDS011;17847;31.524;74.366;2022-09-17T19:21:57;34.20;;;26.38;;
31224;SDS011;17847;31.524;74.366;2022-09-17T19:24:42;40.00;;;26.90;;
31224;SDS011;17847;31.524;74.366;2022-09-17T19:27:37;40.53;;;28.15;;
31224;SDS011;17847;31.524;74.366;2022-09-17T19:30:13;41.35;;;28.23;;
31224;SDS011;17847;31.524;74.366;2022-09-17T19:33:09;36.42;;;28.83;;
31224;SDS011;17847;31.524;74.366;2022-09-17T19:35:57;44.92;;;30.05;;
31224;SDS011;17847;31.524;74.366;2022-09-17T19:38:47;41.30;;;31.00;;
31224;SDS011;17847;31.524;74.366;2022-09-17T19:41:31;42.08;;;30.73;;
31224;SDS011;17847;31.524;74.366;2022-09-17T19:44:19;41.00;;;31.88;;
31224;SDS011;17847;31.524;74.366;2022-09-17T19:47:05;42.03;;;30.38;;
31224;SDS011;17847;31.524;74.366;2022-09-17T19:50:00;43.78;;;29.95;;
31224;SDS011;17847;31.524;74.366;2022-09-17T19:52:42;47.80;;;30.50;;
31224;SDS011;17847;31.524;74.366;2022-09-17T19:55:31;42.28;;;30.95;;
31224;SDS011;17847;31.524;74.366;2022-09-17T19:58:07;38.00;;;28.55;;
31224;SDS011;17847;31.524;74.366;2022-09-17T20:04:09;41.38;;;27.48;;
31224;SDS011;17847;31.524;74.366;2022-09-17T20:06:52;37.15;;;26.58;;
31224;SDS011;17847;31.524;74.366;2022-09-17T20:09:41;38.28;;;24.92;;
31224;SDS011;17847;31.524;74.366;2022-09-17T20:12:24;38.53;;;26.60;;
31224;SDS011;17847;31.524;74.366;2022-09-17T20:15:13;35.72;;;25.02;;
31224;SDS011;17847;31.524;74.366;2022-09-17T20:17:49;32.53;;;24.95;;
31224;SDS011;17847;31.524;74.366;2022-09-17T20:20:44;40.28;;;25.55;;
31224;SDS011;17847;31.524;74.366;2022-09-17T20:26:16;30.42;;;23.88;;
31224;SDS011;17847;31.524;74.366;2022-09-17T20:28:53;33.22;;;24.27;;
31224;SDS011;17847;31.524;74.366;2022-09-17T20:31:48;31.13;;;23.20;;
31224;SDS011;17847;31.524;74.366;2022-09-17T20:34:24;34.85;;;23.83;;
31224;SDS011;17847;31.524;74.366;2022-09-17T20:37:19;33.60;;;23.83;;
31224;SDS011;17847;31.524;74.366;2022-09-17T20:40:21;30.52;;;21.70;;
31224;SDS011;17847;31.524;74.366;2022-09-17T20:43:09;29.88;;;22.42;;
31224;SDS011;17847;31.524;74.366;2022-09-17T20:45:52;33.45;;;22.48;;
31224;SDS011;17847;31.524;74.366;2022-09-17T20:48:48;27.75;;;20.85;;
31224;SDS011;17847;31.524;74.366;2022-09-17T20:51:27;31.10;;;21.23;;
31224;SDS011;17847;31.524;74.366;2022-09-17T20:54:23;28.60;;;20.40;;
31224;SDS011;17847;31.524;74.366;2022-09-17T20:56:58;30.13;;;21.20;;
31224;SDS011;17847;31.524;74.366;2022-09-17T20:59:54;29.13;;;20.70;;
31224;SDS011;17847;31.524;74.366;2022-09-17T21:02:34;31.88;;;20.75;;
31224;SDS011;17847;31.524;74.366;2022-09-17T21:05:30;29.02;;;20.67;;
31224;SDS011;17847;31.524;74.366;2022-09-17T21:08:06;29.88;;;21.25;;
31224;SDS011;17847;31.524;74.366;2022-09-17T21:11:03;25.88;;;20.17;;
31224;SDS011;17847;31.524;74.366;2022-09-17T21:13:46;26.33;;;20.55;;
31224;SDS011;17847;31.524;74.366;2022-09-17T21:16:35;30.92;;;20.88;;
31224;SDS011;17847;31.524;74.366;2022-09-17T21:19:24;30.67;;;20.20;;
31224;SDS011;17847;31.524;74.366;2022-09-17T21:22:19;30.27;;;20.08;;
31224;SDS011;17847;31.524;74.366;2022-09-17T21:24:55;28.10;;;20.55;;
31224;SDS011;17847;31.524;74.366;2022-09-17T21:27:50;26.08;;;19.88;;
31224;SDS011;17847;31.524;74.366;2022-09-17T21:30:32;30.35;;;19.73;;
31224;SDS011;17847;31.524;74.366;2022-09-17T21:33:21;26.73;;;20.00;;
31224;SDS011;17847;31.524;74.366;2022-09-17T21:36:06;26.05;;;18.10;;
31224;SDS011;17847;31.524;74.366;2022-09-17T21:39:05;34.75;;;19.00;;
31224;SDS011;17847;31.524;74.366;2022-09-17T21:42:04;27.10;;;18.95;;
31224;SDS011;17847;31.524;74.366;2022-09-17T21:44:40;26.10;;;19.20;;
31224;SDS011;17847;31.524;74.366;2022-09-17T21:47:35;27.05;;;18.80;;
31224;SDS011;17847;31.524;74.366;2022-09-17T21:50:10;28.65;;;20.70;;
31224;SDS011;17847;31.524;74.366;2022-09-17T21:53:06;26.13;;;20.45;;
31224;SDS011;17847;31.524;74.366;2022-09-17T21:55:42;25.67;;;19.38;;
31224;SDS011;17847;31.524;74.366;2022-09-17T21:58:37;26.52;;;19.88;;
31224;SDS011;17847;31.524;74.366;2022-09-17T22:04:14;24.88;;;17.50;;
31224;SDS011;17847;31.524;74.366;2022-09-17T22:06:57;23.63;;;19.48;;
31224;SDS011;17847;31.524;74.366;2022-09-17T22:09:46;28.98;;;20.33;;
31224;SDS011;17847;31.524;74.366;2022-09-17T22:12:22;24.00;;;18.75;;
31224;SDS011;17847;31.524;74.366;2022-09-17T22:15:17;28.40;;;19.05;;
31224;SDS011;17847;31.524;74.366;2022-09-17T22:17:53;26.00;;;18.92;;
31224;SDS011;17847;31.524;74.366;2022-09-17T22:20:52;24.38;;;19.33;;
31224;SDS011;17847;31.524;74.366;2022-09-17T22:23:36;26.70;;;19.52;;
31224;SDS011;17847;31.524;74.366;2022-09-17T22:26:32;25.70;;;19.23;;
31224;SDS011;17847;31.524;74.366;2022-09-17T22:29:19;26.67;;;19.50;;
31224;SDS011;17847;31.524;74.366;2022-09-17T22:32:11;22.92;;;18.60;;
31224;SDS011;17847;31.524;74.366;2022-09-17T22:34:53;31.88;;;19.85;;
31224;SDS011;17847;31.524;74.366;2022-09-17T22:37:42;26.40;;;18.95;;
31224;SDS011;17847;31.524;74.366;2022-09-17T22:40:25;28.25;;;19.75;;
31224;SDS011;17847;31.524;74.366;2022-09-17T22:43:13;27.67;;;19.27;;
31224;SDS011;17847;31.524;74.366;2022-09-17T22:45:56;27.63;;;18.80;;
31224;SDS011;17847;31.524;74.366;2022-09-17T22:48:44;28.25;;;19.42;;
31224;SDS011;17847;31.524;74.366;2022-09-17T22:51:28;29.50;;;19.67;;
31224;SDS011;17847;31.524;74.366;2022-09-17T22:54:17;26.02;;;19.23;;
31224;SDS011;17847;31.524;74.366;2022-09-17T22:57:00;28.08;;;19.20;;
31224;SDS011;17847;31.524;74.366;2022-09-17T22:59:55;28.48;;;19.13;;
31224;SDS011;17847;31.524;74.366;2022-09-17T23:02:31;26.95;;;19.42;;
31224;SDS011;17847;31.524;74.366;2022-09-17T23:05:27;27.60;;;17.65;;
31224;SDS011;17847;31.524;74.366;2022-09-17T23:08:10;33.15;;;20.15;;
31224;SDS011;17847;31.524;74.366;2022-09-17T23:11:00;32.65;;;19.50;;
31224;SDS011;17847;31.524;74.366;2022-09-17T23:13:37;31.95;;;20.83;;
31224;SDS011;17847;31.524;74.366;2022-09-17T23:16:39;29.23;;;19.27;;
31224;SDS011;17847;31.524;74.366;2022-09-17T23:19:19;26.23;;;18.88;;
31224;SDS011;17847;31.524;74.366;2022-09-17T23:22:15;27.40;;;19.83;;
31224;SDS011;17847;31.524;74.366;2022-09-17T23:24:57;27.02;;;18.50;;
31224;SDS011;17847;31.524;74.366;2022-09-17T23:27:45;32.03;;;20.60;;
31224;SDS011;17847;31.524;74.366;2022-09-17T23:30:28;29.40;;;19.52;;
31224;SDS011;17847;31.524;74.366;2022-09-17T23:33:17;26.23;;;20.15;;
31224;SDS011;17847;31.524;74.366;2022-09-17T23:36:06;33.25;;;19.88;;
31224;SDS011;17847;31.524;74.366;2022-09-17T23:38:57;28.73;;;19.42;;
31224;SDS011;17847;31.524;74.366;2022-09-17T23:41:42;26.75;;;19.73;;
31224;SDS011;17847;31.524;74.366;2022-09-17T23:44:38;28.33;;;21.40;;
31224;SDS011;17847;31.524;74.366;2022-09-17T23:47:21;27.95;;;20.15;;
31224;SDS011;17847;31.524;74.366;2022-09-17T23:50:09;27.05;;;19.10;;
31224;SDS011;17847;31.524;74.366;2022-09-17T23:52:52;30.77;;;19.55;;
31224;SDS011;17847;31.524;74.366;2022-09-17T23:55:45;27.53;;;20.80;;
31224;SDS011;17847;31.524;74.366;2022-09-17T23:58:28;31.67;;;21.15;;
